createdAt,value
2017-05-30T00:02:57.041Z,10.98
2017-05-30T00:24:04.114Z,10.70
2017-05-30T00:45:11.473Z,9.02
2017-05-30T01:06:19.260Z,9.44
2017-05-30T01:27:26.737Z,10.30
2017-05-30T01:51:39.524Z,9.70
2017-05-30T02:13:00.676Z,9.16
2017-05-30T02:34:06.616Z,9.42
2017-05-30T02:55:13.448Z,10.70
2017-05-30T03:16:19.843Z,9.78
2017-05-30T03:37:26.082Z,11.14
2017-05-30T03:58:32.886Z,11.22
2017-05-30T04:19:38.865Z,12.50
2017-05-30T04:40:45.290Z,13.48
2017-05-30T05:01:52.211Z,15.18
2017-05-30T05:22:58.532Z,15.22
2017-05-30T05:44:05.411Z,14.62
2017-05-30T06:05:13.116Z,16.20
2017-05-30T06:26:19.136Z,18.48
2017-05-30T06:47:25.781Z,12.92
2017-05-30T07:08:32.948Z,17.66
2017-05-30T07:29:39.385Z,13.80
2017-05-30T07:50:45.264Z,14.26
2017-05-30T08:11:51.738Z,15.98
2017-05-30T08:32:57.809Z,15.26
2017-05-30T08:54:04.874Z,20.20
2017-05-30T09:15:12.052Z,19.04
2017-05-30T09:36:18.429Z,12.78
2017-05-30T09:57:24.540Z,11.58
2017-05-30T10:18:30.705Z,11.38
2017-05-30T10:39:37.912Z,13.40
2017-05-30T11:00:45.023Z,7.90
2017-05-30T11:21:51.503Z,8.44
2017-05-30T11:42:58.220Z,5.36
2017-05-30T12:04:04.233Z,7.46
2017-05-30T12:25:11.051Z,4.70
2017-05-30T12:46:17.093Z,9.18
2017-05-30T13:07:23.342Z,9.32
2017-05-30T13:28:29.601Z,4.76
2017-05-30T13:55:51.036Z,6.84
2017-05-30T14:16:57.750Z,16.88
2017-05-30T14:38:05.138Z,9.48
2017-05-30T14:59:11.827Z,7.98
2017-05-30T15:20:19.127Z,6.08
2017-05-30T15:41:25.825Z,6.88
2017-05-30T16:02:32.076Z,5.12
2017-05-30T16:23:39.842Z,8.54
2017-05-30T16:44:46.952Z,5.62
2017-05-30T17:05:53.766Z,8.64
2017-05-30T17:27:01.875Z,9.28
2017-05-30T17:48:09.598Z,8.54
2017-05-30T18:09:16.690Z,8.46
2017-05-30T18:30:23.413Z,10.88
2017-05-30T18:51:29.589Z,12.50
2017-05-30T19:12:35.734Z,12.88
2017-05-30T19:33:42.418Z,11.44
2017-05-30T19:54:48.920Z,11.22
2017-05-30T20:15:56.704Z,13.38
2017-05-30T20:37:04.822Z,12.36
2017-05-30T20:58:12.488Z,13.30
2017-05-30T21:19:19.537Z,14.10
2017-05-30T21:40:26.711Z,14.42
2017-05-30T22:01:33.952Z,15.16
2017-05-30T22:22:41.728Z,13.56
2017-05-30T22:43:49.724Z,15.74
2017-05-30T23:04:58.297Z,14.72
2017-05-30T23:26:05.044Z,15.02
2017-05-30T23:47:12.864Z,14.22
